sensor_id;sensor_type;location;lat;lon;timestamp;P1;durP1;ratioP1;P2;durP2;ratioP2
37097;SDS011;63608;49.572;12.348;2023-10-31T00:01:04;5.80;;;4.77;;
37097;SDS011;63608;49.572;12.348;2023-10-31T00:03:10;6.13;;;4.10;;
37097;SDS011;63608;49.572;12.348;2023-10-31T00:05:13;13.60;;;4.10;;
37097;SDS011;63608;49.572;12.348;2023-10-31T00:07:17;6.37;;;4.87;;
37097;SDS011;63608;49.572;12.348;2023-10-31T00:09:19;4.70;;;3.93;;
37097;SDS011;63608;49.572;12.348;2023-10-31T00:11:21;6.17;;;4.23;;
37097;SDS011;63608;49.572;12.348;2023-10-31T00:13:24;6.60;;;4.50;;
37097;SDS011;63608;49.572;12.348;2023-10-31T00:15:27;6.50;;;4.00;;
37097;SDS011;63608;49.572;12.348;2023-10-31T00:17:30;4.83;;;3.93;;
37097;SDS011;63608;49.572;12.348;2023-10-31T00:19:31;5.20;;;4.47;;
37097;SDS011;63608;49.572;12.348;2023-10-31T00:21:33;5.20;;;3.80;;
37097;SDS011;63608;49.572;12.348;2023-10-31T00:23:44;7.07;;;4.40;;
37097;SDS011;63608;49.572;12.348;2023-10-31T00:25:46;5.93;;;3.63;;
37097;SDS011;63608;49.572;12.348;2023-10-31T00:27:48;9.93;;;4.50;;
37097;SDS011;63608;49.572;12.348;2023-10-31T00:29:50;10.50;;;4.13;;
37097;SDS011;63608;49.572;12.348;2023-10-31T00:31:52;6.10;;;4.00;;
37097;SDS011;63608;49.572;12.348;2023-10-31T00:33:56;7.07;;;3.70;;
37097;SDS011;63608;49.572;12.348;2023-10-31T00:35:58;4.90;;;3.43;;
37097;SDS011;63608;49.572;12.348;2023-10-31T00:38:00;4.90;;;3.70;;
37097;SDS011;63608;49.572;12.348;2023-10-31T00:40:06;6.67;;;3.63;;
37097;SDS011;63608;49.572;12.348;2023-10-31T00:42:11;3.40;;;3.10;;
37097;SDS011;63608;49.572;12.348;2023-10-31T00:44:16;4.77;;;3.83;;
37097;SDS011;63608;49.572;12.348;2023-10-31T00:46:19;6.87;;;3.83;;
37097;SDS011;63608;49.572;12.348;2023-10-31T00:48:22;5.43;;;3.57;;
37097;SDS011;63608;49.572;12.348;2023-10-31T00:50:24;7.63;;;3.57;;
37097;SDS011;63608;49.572;12.348;2023-10-31T00:52:25;10.70;;;4.17;;
37097;SDS011;63608;49.572;12.348;2023-10-31T00:54:28;4.67;;;3.97;;
37097;SDS011;63608;49.572;12.348;2023-10-31T00:56:32;5.97;;;3.93;;
37097;SDS011;63608;49.572;12.348;2023-10-31T00:58:37;3.67;;;3.30;;
37097;SDS011;63608;49.572;12.348;2023-10-31T01:00:39;5.60;;;3.67;;
37097;SDS011;63608;49.572;12.348;2023-10-31T01:02:42;3.40;;;2.93;;
37097;SDS011;63608;49.572;12.348;2023-10-31T01:04:44;7.90;;;2.87;;
37097;SDS011;63608;49.572;12.348;2023-10-31T01:06:46;3.63;;;2.63;;
37097;SDS011;63608;49.572;12.348;2023-10-31T01:08:48;3.40;;;3.10;;
37097;SDS011;63608;49.572;12.348;2023-10-31T01:10:50;5.57;;;3.50;;
37097;SDS011;63608;49.572;12.348;2023-10-31T01:12:55;3.23;;;2.90;;
37097;SDS011;63608;49.572;12.348;2023-10-31T01:14:56;8.70;;;3.00;;
37097;SDS011;63608;49.572;12.348;2023-10-31T01:17:02;4.17;;;2.97;;
37097;SDS011;63608;49.572;12.348;2023-10-31T01:19:05;3.70;;;2.73;;
37097;SDS011;63608;49.572;12.348;2023-10-31T01:21:07;2.57;;;2.37;;
37097;SDS011;63608;49.572;12.348;2023-10-31T01:23:10;2.83;;;2.63;;
37097;SDS011;63608;49.572;12.348;2023-10-31T01:25:12;4.60;;;2.60;;
37097;SDS011;63608;49.572;12.348;2023-10-31T01:27:15;3.10;;;2.60;;
37097;SDS011;63608;49.572;12.348;2023-10-31T01:29:19;2.50;;;2.30;;
37097;SDS011;63608;49.572;12.348;2023-10-31T01:31:21;2.73;;;2.53;;
37097;SDS011;63608;49.572;12.348;2023-10-31T01:33:23;2.40;;;2.20;;
37097;SDS011;63608;49.572;12.348;2023-10-31T01:35:30;2.83;;;2.13;;
37097;SDS011;63608;49.572;12.348;2023-10-31T01:37:33;3.17;;;2.40;;
37097;SDS011;63608;49.572;12.348;2023-10-31T01:39:36;2.23;;;2.03;;
37097;SDS011;63608;49.572;12.348;2023-10-31T01:41:40;2.03;;;1.83;;
37097;SDS011;63608;49.572;12.348;2023-10-31T01:43:43;2.20;;;2.00;;
37097;SDS011;63608;49.572;12.348;2023-10-31T01:45:47;3.07;;;2.17;;
37097;SDS011;63608;49.572;12.348;2023-10-31T01:47:52;2.50;;;2.40;;
37097;SDS011;63608;49.572;12.348;2023-10-31T01:49:57;2.60;;;2.07;;
37097;SDS011;63608;49.572;12.348;2023-10-31T01:52:00;3.23;;;1.63;;
37097;SDS011;63608;49.572;12.348;2023-10-31T01:54:03;1.60;;;1.50;;
37097;SDS011;63608;49.572;12.348;2023-10-31T01:56:09;9.37;;;2.00;;
37097;SDS011;63608;49.572;12.348;2023-10-31T01:58:10;2.10;;;1.90;;
37097;SDS011;63608;49.572;12.348;2023-10-31T02:00:14;1.90;;;1.80;;
37097;SDS011;63608;49.572;12.348;2023-10-31T02:02:18;1.90;;;1.70;;
37097;SDS011;63608;49.572;12.348;2023-10-31T02:04:20;1.70;;;1.60;;
37097;SDS011;63608;49.572;12.348;2023-10-31T02:06:22;1.70;;;1.60;;
37097;SDS011;63608;49.572;12.348;2023-10-31T02:08:29;1.77;;;1.33;;
37097;SDS011;63608;49.572;12.348;2023-10-31T02:10:31;1.17;;;1.17;;
37097;SDS011;63608;49.572;12.348;2023-10-31T02:12:34;1.73;;;1.20;;
37097;SDS011;63608;49.572;12.348;2023-10-31T02:14:38;1.60;;;1.43;;
37097;SDS011;63608;49.572;12.348;2023-10-31T02:16:42;1.30;;;1.20;;
37097;SDS011;63608;49.572;12.348;2023-10-31T02:18:50;1.30;;;1.20;;
37097;SDS011;63608;49.572;12.348;2023-10-31T02:20:52;2.40;;;1.20;;
37097;SDS011;63608;49.572;12.348;2023-10-31T02:22:56;1.07;;;1.03;;
37097;SDS011;63608;49.572;12.348;2023-10-31T02:24:58;1.10;;;1.10;;
37097;SDS011;63608;49.572;12.348;2023-10-31T02:27:02;1.10;;;1.03;;
37097;SDS011;63608;49.572;12.348;2023-10-31T02:29:06;1.23;;;1.13;;
37097;SDS011;63608;49.572;12.348;2023-10-31T02:31:11;1.03;;;1.00;;
37097;SDS011;63608;49.572;12.348;2023-10-31T02:33:17;0.87;;;0.87;;
37097;SDS011;63608;49.572;12.348;2023-10-31T02:35:20;1.00;;;1.00;;
37097;SDS011;63608;49.572;12.348;2023-10-31T02:37:21;1.20;;;1.10;;
37097;SDS011;63608;49.572;12.348;2023-10-31T02:39:25;1.53;;;1.43;;
37097;SDS011;63608;49.572;12.348;2023-10-31T02:41:27;1.10;;;1.10;;
37097;SDS011;63608;49.572;12.348;2023-10-31T02:43:30;1.27;;;1.17;;
37097;SDS011;63608;49.572;12.348;2023-10-31T02:45:31;1.60;;;1.40;;
37097;SDS011;63608;49.572;12.348;2023-10-31T02:47:33;2.40;;;1.63;;
37097;SDS011;63608;49.572;12.348;2023-10-31T02:49:37;1.60;;;1.50;;
37097;SDS011;63608;49.572;12.348;2023-10-31T02:51:41;1.70;;;1.53;;
37097;SDS011;63608;49.572;12.348;2023-10-31T02:53:44;1.43;;;1.33;;
37097;SDS011;63608;49.572;12.348;2023-10-31T02:55:46;1.50;;;1.40;;
37097;SDS011;63608;49.572;12.348;2023-10-31T02:57:49;1.37;;;1.27;;
37097;SDS011;63608;49.572;12.348;2023-10-31T02:59:51;1.67;;;1.57;;
37097;SDS011;63608;49.572;12.348;2023-10-31T03:01:53;1.40;;;1.30;;
37097;SDS011;63608;49.572;12.348;2023-10-31T03:03:58;1.50;;;1.33;;
37097;SDS011;63608;49.572;12.348;2023-10-31T03:05:59;1.87;;;1.77;;
37097;SDS011;63608;49.572;12.348;2023-10-31T03:08:01;1.50;;;1.40;;
37097;SDS011;63608;49.572;12.348;2023-10-31T03:10:03;1.40;;;1.33;;
37097;SDS011;63608;49.572;12.348;2023-10-31T03:12:08;1.70;;;1.60;;
37097;SDS011;63608;49.572;12.348;2023-10-31T03:14:14;4.00;;;1.50;;
37097;SDS011;63608;49.572;12.348;2023-10-31T03:16:16;1.60;;;1.40;;
37097;SDS011;63608;49.572;12.348;2023-10-31T03:18:20;1.43;;;1.33;;
37097;SDS011;63608;49.572;12.348;2023-10-31T03:20:23;1.17;;;1.07;;
37097;SDS011;63608;49.572;12.348;2023-10-31T03:22:28;1.37;;;1.10;;
37097;SDS011;63608;49.572;12.348;2023-10-31T03:24:32;1.20;;;1.20;;
37097;SDS011;63608;49.572;12.348;2023-10-31T03:26:34;1.30;;;1.20;;
37097;SDS011;63608;49.572;12.348;2023-10-31T03:28:38;1.20;;;1.10;;
37097;SDS011;63608;49.572;12.348;2023-10-31T03:30:40;1.77;;;1.13;;
37097;SDS011;63608;49.572;12.348;2023-10-31T03:32:42;1.87;;;1.40;;
37097;SDS011;63608;49.572;12.348;2023-10-31T03:34:45;0.87;;;0.87;;
37097;SDS011;63608;49.572;12.348;2023-10-31T03:36:47;0.90;;;0.90;;
37097;SDS011;63608;49.572;12.348;2023-10-31T03:38:50;2.03;;;1.03;;
37097;SDS011;63608;49.572;12.348;2023-10-31T03:40:52;1.87;;;1.13;;
37097;SDS011;63608;49.572;12.348;2023-10-31T03:42:55;1.30;;;1.20;;
37097;SDS011;63608;49.572;12.348;2023-10-31T03:44:59;1.17;;;0.97;;
37097;SDS011;63608;49.572;12.348;2023-10-31T03:47:02;0.87;;;0.87;;
37097;SDS011;63608;49.572;12.348;2023-10-31T03:49:04;1.17;;;1.10;;
37097;SDS011;63608;49.572;12.348;2023-10-31T03:51:07;0.93;;;0.93;;
37097;SDS011;63608;49.572;12.348;2023-10-31T03:53:15;1.20;;;1.10;;
37097;SDS011;63608;49.572;12.348;2023-10-31T03:55:17;1.20;;;1.00;;
37097;SDS011;63608;49.572;12.348;2023-10-31T03:57:24;1.00;;;1.00;;
37097;SDS011;63608;49.572;12.348;2023-10-31T03:59:29;3.33;;;1.00;;
37097;SDS011;63608;49.572;12.348;2023-10-31T04:01:33;1.30;;;1.20;;
37097;SDS011;63608;49.572;12.348;2023-10-31T04:03:35;1.03;;;0.93;;
37097;SDS011;63608;49.572;12.348;2023-10-31T04:05:37;0.90;;;0.90;;
37097;SDS011;63608;49.572;12.348;2023-10-31T04:07:45;0.97;;;0.97;;
37097;SDS011;63608;49.572;12.348;2023-10-31T04:09:49;0.80;;;0.80;;
37097;SDS011;63608;49.572;12.348;2023-10-31T04:11:51;0.70;;;0.70;;
37097;SDS011;63608;49.572;12.348;2023-10-31T04:13:53;1.13;;;1.13;;
37097;SDS011;63608;49.572;12.348;2023-10-31T04:15:54;0.80;;;0.80;;
37097;SDS011;63608;49.572;12.348;2023-10-31T04:17:58;0.80;;;0.80;;
37097;SDS011;63608;49.572;12.348;2023-10-31T04:20:01;0.80;;;0.80;;
37097;SDS011;63608;49.572;12.348;2023-10-31T04:22:06;2.13;;;0.73;;
37097;SDS011;63608;49.572;12.348;2023-10-31T04:24:08;0.80;;;0.70;;
37097;SDS011;63608;49.572;12.348;2023-10-31T04:26:12;0.87;;;0.80;;
37097;SDS011;63608;49.572;12.348;2023-10-31T04:28:20;1.00;;;1.00;;
37097;SDS011;63608;49.572;12.348;2023-10-31T04:30:21;0.80;;;0.80;;
37097;SDS011;63608;49.572;12.348;2023-10-31T04:32:23;0.80;;;0.80;;
37097;SDS011;63608;49.572;12.348;2023-10-31T04:34:27;0.90;;;0.90;;
37097;SDS011;63608;49.572;12.348;2023-10-31T04:36:29;0.70;;;0.70;;
37097;SDS011;63608;49.572;12.348;2023-10-31T04:38:31;0.80;;;0.80;;
37097;SDS011;63608;49.572;12.348;2023-10-31T04:40:34;0.80;;;0.80;;
37097;SDS011;63608;49.572;12.348;2023-10-31T04:42:34;0.90;;;0.90;;
37097;SDS011;63608;49.572;12.348;2023-10-31T04:44:36;0.70;;;0.70;;
37097;SDS011;63608;49.572;12.348;2023-10-31T04:46:39;0.90;;;0.90;;
37097;SDS011;63608;49.572;12.348;2023-10-31T04:48:42;0.80;;;0.80;;
37097;SDS011;63608;49.572;12.348;2023-10-31T04:50:45;0.70;;;0.70;;
37097;SDS011;63608;49.572;12.348;2023-10-31T04:52:49;0.80;;;0.80;;
37097;SDS011;63608;49.572;12.348;2023-10-31T04:54:51;0.93;;;0.90;;
37097;SDS011;63608;49.572;12.348;2023-10-31T04:56:53;0.80;;;0.80;;
37097;SDS011;63608;49.572;12.348;2023-10-31T04:58:59;0.77;;;0.77;;
37097;SDS011;63608;49.572;12.348;2023-10-31T05:01:01;0.80;;;0.80;;
37097;SDS011;63608;49.572;12.348;2023-10-31T05:03:03;0.80;;;0.70;;
37097;SDS011;63608;49.572;12.348;2023-10-31T05:05:06;4.00;;;1.00;;
37097;SDS011;63608;49.572;12.348;2023-10-31T05:07:11;0.80;;;0.80;;
37097;SDS011;63608;49.572;12.348;2023-10-31T05:09:16;1.53;;;1.20;;
37097;SDS011;63608;49.572;12.348;2023-10-31T05:11:20;1.10;;;0.93;;
37097;SDS011;63608;49.572;12.348;2023-10-31T05:13:22;1.20;;;0.70;;
37097;SDS011;63608;49.572;12.348;2023-10-31T05:15:24;0.90;;;0.73;;
37097;SDS011;63608;49.572;12.348;2023-10-31T05:17:29;0.80;;;0.80;;
37097;SDS011;63608;49.572;12.348;2023-10-31T05:19:40;0.90;;;0.90;;
37097;SDS011;63608;49.572;12.348;2023-10-31T05:21:44;9.60;;;1.10;;
37097;SDS011;63608;49.572;12.348;2023-10-31T05:23:48;1.00;;;0.90;;
37097;SDS011;63608;49.572;12.348;2023-10-31T05:25:49;1.90;;;0.80;;
37097;SDS011;63608;49.572;12.348;2023-10-31T05:27:51;0.93;;;0.93;;
37097;SDS011;63608;49.572;12.348;2023-10-31T05:29:54;0.80;;;0.80;;
37097;SDS011;63608;49.572;12.348;2023-10-31T05:31:56;1.13;;;0.70;;
37097;SDS011;63608;49.572;12.348;2023-10-31T05:33:58;0.80;;;0.80;;
37097;SDS011;63608;49.572;12.348;2023-10-31T05:35:59;0.93;;;0.93;;
37097;SDS011;63608;49.572;12.348;2023-10-31T05:38:02;0.70;;;0.70;;
37097;SDS011;63608;49.572;12.348;2023-10-31T05:40:09;0.83;;;0.83;;
37097;SDS011;63608;49.572;12.348;2023-10-31T05:42:13;0.90;;;0.80;;
37097;SDS011;63608;49.572;12.348;2023-10-31T05:44:21;0.80;;;0.80;;
37097;SDS011;63608;49.572;12.348;2023-10-31T05:46:23;0.90;;;0.90;;
37097;SDS011;63608;49.572;12.348;2023-10-31T05:48:24;0.70;;;0.70;;
37097;SDS011;63608;49.572;12.348;2023-10-31T05:50:28;0.90;;;0.80;;
37097;SDS011;63608;49.572;12.348;2023-10-31T05:52:32;0.73;;;0.73;;
37097;SDS011;63608;49.572;12.348;2023-10-31T05:54:36;0.70;;;0.70;;
37097;SDS011;63608;49.572;12.348;2023-10-31T05:56:40;0.80;;;0.80;;
37097;SDS011;63608;49.572;12.348;2023-10-31T05:58:45;0.70;;;0.70;;
37097;SDS011;63608;49.572;12.348;2023-10-31T06:00:47;0.70;;;0.70;;
37097;SDS011;63608;49.572;12.348;2023-10-31T06:02:49;1.30;;;0.90;;
37097;SDS011;63608;49.572;12.348;2023-10-31T06:04:51;0.93;;;0.90;;
37097;SDS011;63608;49.572;12.348;2023-10-31T06:06:52;1.03;;;0.90;;
37097;SDS011;63608;49.572;12.348;2023-10-31T06:08:56;0.70;;;0.60;;
37097;SDS011;63608;49.572;12.348;2023-10-31T06:10:58;0.80;;;0.80;;
37097;SDS011;63608;49.572;12.348;2023-10-31T06:13:02;1.10;;;1.00;;
37097;SDS011;63608;49.572;12.348;2023-10-31T06:15:05;0.90;;;0.90;;
37097;SDS011;63608;49.572;12.348;2023-10-31T06:17:08;0.70;;;0.70;;
37097;SDS011;63608;49.572;12.348;2023-10-31T06:19:11;1.00;;;1.00;;
37097;SDS011;63608;49.572;12.348;2023-10-31T06:21:14;0.70;;;0.70;;
37097;SDS011;63608;49.572;12.348;2023-10-31T06:23:16;0.70;;;0.70;;
37097;SDS011;63608;49.572;12.348;2023-10-31T06:25:20;0.70;;;0.60;;
37097;SDS011;63608;49.572;12.348;2023-10-31T06:27:22;1.20;;;1.10;;
37097;SDS011;63608;49.572;12.348;2023-10-31T06:29:27;0.90;;;0.90;;
37097;SDS011;63608;49.572;12.348;2023-10-31T06:31:29;1.10;;;1.00;;
37097;SDS011;63608;49.572;12.348;2023-10-31T06:33:32;1.00;;;0.90;;
37097;SDS011;63608;49.572;12.348;2023-10-31T06:35:34;1.00;;;0.90;;
37097;SDS011;63608;49.572;12.348;2023-10-31T06:37:35;0.90;;;0.70;;
37097;SDS011;63608;49.572;12.348;2023-10-31T06:39:37;0.70;;;0.70;;
37097;SDS011;63608;49.572;12.348;2023-10-31T06:41:40;1.53;;;0.90;;
37097;SDS011;63608;49.572;12.348;2023-10-31T06:43:44;0.80;;;0.80;;
37097;SDS011;63608;49.572;12.348;2023-10-31T06:45:48;1.20;;;1.10;;
37097;SDS011;63608;49.572;12.348;2023-10-31T06:47:52;1.03;;;0.90;;
37097;SDS011;63608;49.572;12.348;2023-10-31T06:49:54;0.90;;;0.90;;
37097;SDS011;63608;49.572;12.348;2023-10-31T06:51:56;0.83;;;0.83;;
37097;SDS011;63608;49.572;12.348;2023-10-31T06:53:57;0.97;;;0.97;;
37097;SDS011;63608;49.572;12.348;2023-10-31T06:55:59;1.10;;;0.90;;
37097;SDS011;63608;49.572;12.348;2023-10-31T06:58:02;1.27;;;1.00;;
37097;SDS011;63608;49.572;12.348;2023-10-31T07:00:04;1.10;;;1.00;;
37097;SDS011;63608;49.572;12.348;2023-10-31T07:02:12;1.17;;;1.10;;
37097;SDS011;63608;49.572;12.348;2023-10-31T07:04:14;1.03;;;1.03;;
37097;SDS011;63608;49.572;12.348;2023-10-31T07:06:18;1.40;;;1.30;;
37097;SDS011;63608;49.572;12.348;2023-10-31T07:08:21;1.00;;;1.00;;
37097;SDS011;63608;49.572;12.348;2023-10-31T07:10:23;1.20;;;1.10;;
37097;SDS011;63608;49.572;12.348;2023-10-31T07:12:26;1.10;;;1.00;;
37097;SDS011;63608;49.572;12.348;2023-10-31T07:14:29;1.00;;;1.00;;
37097;SDS011;63608;49.572;12.348;2023-10-31T07:16:31;1.23;;;1.13;;
37097;SDS011;63608;49.572;12.348;2023-10-31T07:18:37;0.90;;;0.90;;
37097;SDS011;63608;49.572;12.348;2023-10-31T07:20:39;0.90;;;0.90;;
37097;SDS011;63608;49.572;12.348;2023-10-31T07:22:41;1.20;;;1.10;;
37097;SDS011;63608;49.572;12.348;2023-10-31T07:24:44;0.93;;;0.93;;
37097;SDS011;63608;49.572;12.348;2023-10-31T07:26:46;1.23;;;1.13;;
37097;SDS011;63608;49.572;12.348;2023-10-31T07:28:47;0.93;;;0.93;;
37097;SDS011;63608;49.572;12.348;2023-10-31T07:30:49;1.00;;;1.00;;
37097;SDS011;63608;49.572;12.348;2023-10-31T07:32:52;1.00;;;0.90;;
37097;SDS011;63608;49.572;12.348;2023-10-31T07:34:57;1.10;;;0.90;;
37097;SDS011;63608;49.572;12.348;2023-10-31T07:36:59;3.27;;;0.73;;
37097;SDS011;63608;49.572;12.348;2023-10-31T07:39:02;0.80;;;0.80;;
37097;SDS011;63608;49.572;12.348;2023-10-31T07:41:07;0.80;;;0.80;;
37097;SDS011;63608;49.572;12.348;2023-10-31T07:43:10;2.60;;;1.00;;
37097;SDS011;63608;49.572;12.348;2023-10-31T07:45:13;1.00;;;0.87;;
37097;SDS011;63608;49.572;12.348;2023-10-31T07:47:15;0.90;;;0.90;;
37097;SDS011;63608;49.572;12.348;2023-10-31T07:49:16;1.07;;;0.97;;
37097;SDS011;63608;49.572;12.348;2023-10-31T07:51:35;1.00;;;0.90;;
37097;SDS011;63608;49.572;12.348;2023-10-31T07:53:37;1.00;;;0.90;;
37097;SDS011;63608;49.572;12.348;2023-10-31T07:55:40;0.97;;;0.83;;
37097;SDS011;63608;49.572;12.348;2023-10-31T07:57:42;0.80;;;0.70;;
37097;SDS011;63608;49.572;12.348;2023-10-31T07:59:44;1.07;;;0.90;;
37097;SDS011;63608;49.572;12.348;2023-10-31T08:01:46;0.80;;;0.70;;
37097;SDS011;63608;49.572;12.348;2023-10-31T08:03:52;1.63;;;0.97;;
37097;SDS011;63608;49.572;12.348;2023-10-31T08:05:58;1.00;;;0.83;;
37097;SDS011;63608;49.572;12.348;2023-10-31T08:08:05;0.70;;;0.70;;
37097;SDS011;63608;49.572;12.348;2023-10-31T08:10:08;0.70;;;0.70;;
37097;SDS011;63608;49.572;12.348;2023-10-31T08:12:12;1.03;;;0.80;;
37097;SDS011;63608;49.572;12.348;2023-10-31T08:14:15;1.00;;;1.00;;
37097;SDS011;63608;49.572;12.348;2023-10-31T08:16:17;2.80;;;1.10;;
37097;SDS011;63608;49.572;12.348;2023-10-31T08:18:21;0.80;;;0.80;;
37097;SDS011;63608;49.572;12.348;2023-10-31T08:20:23;0.70;;;0.70;;
37097;SDS011;63608;49.572;12.348;2023-10-31T08:22:26;1.00;;;1.00;;
37097;SDS011;63608;49.572;12.348;2023-10-31T08:24:34;1.20;;;1.10;;
37097;SDS011;63608;49.572;12.348;2023-10-31T08:26:37;0.77;;;0.77;;
37097;SDS011;63608;49.572;12.348;2023-10-31T08:28:42;0.90;;;0.90;;
37097;SDS011;63608;49.572;12.348;2023-10-31T08:30:48;1.13;;;0.87;;
37097;SDS011;63608;49.572;12.348;2023-10-31T08:32:51;1.10;;;0.80;;
37097;SDS011;63608;49.572;12.348;2023-10-31T08:34:54;0.70;;;0.70;;
37097;SDS011;63608;49.572;12.348;2023-10-31T08:36:58;1.00;;;0.87;;
37097;SDS011;63608;49.572;12.348;2023-10-31T08:39:00;0.90;;;0.90;;
37097;SDS011;63608;49.572;12.348;2023-10-31T08:41:05;4.03;;;0.90;;
37097;SDS011;63608;49.572;12.348;2023-10-31T08:43:07;0.70;;;0.70;;
37097;SDS011;63608;49.572;12.348;2023-10-31T08:45:13;5.50;;;0.83;;
37097;SDS011;63608;49.572;12.348;2023-10-31T08:47:16;0.80;;;0.80;;
37097;SDS011;63608;49.572;12.348;2023-10-31T08:49:19;1.00;;;0.90;;
37097;SDS011;63608;49.572;12.348;2023-10-31T08:51:21;1.10;;;0.90;;
37097;SDS011;63608;49.572;12.348;2023-10-31T08:53:24;0.80;;;0.80;;
37097;SDS011;63608;49.572;12.348;2023-10-31T08:55:29;0.90;;;0.90;;
37097;SDS011;63608;49.572;12.348;2023-10-31T08:57:33;0.80;;;0.80;;
37097;SDS011;63608;49.572;12.348;2023-10-31T08:59:35;0.80;;;0.80;;
37097;SDS011;63608;49.572;12.348;2023-10-31T09:01:36;1.63;;;1.20;;
37097;SDS011;63608;49.572;12.348;2023-10-31T09:03:38;0.90;;;0.87;;
37097;SDS011;63608;49.572;12.348;2023-10-31T09:05:40;0.93;;;0.80;;
37097;SDS011;63608;49.572;12.348;2023-10-31T09:07:44;1.10;;;0.77;;
37097;SDS011;63608;49.572;12.348;2023-10-31T09:09:46;0.80;;;0.80;;
37097;SDS011;63608;49.572;12.348;2023-10-31T09:11:48;0.80;;;0.80;;
37097;SDS011;63608;49.572;12.348;2023-10-31T09:13:55;1.07;;;0.97;;
37097;SDS011;63608;49.572;12.348;2023-10-31T09:15:57;0.70;;;0.70;;
37097;SDS011;63608;49.572;12.348;2023-10-31T09:18:00;0.90;;;0.90;;
37097;SDS011;63608;49.572;12.348;2023-10-31T09:22:38;1.00;;;0.90;;
37097;SDS011;63608;49.572;12.348;2023-10-31T09:24:40;0.90;;;0.80;;
37097;SDS011;63608;49.572;12.348;2023-10-31T09:26:43;0.70;;;0.70;;
37097;SDS011;63608;49.572;12.348;2023-10-31T09:28:45;0.80;;;0.70;;
37097;SDS011;63608;49.572;12.348;2023-10-31T09:30:51;0.90;;;0.90;;
37097;SDS011;63608;49.572;12.348;2023-10-31T09:32:54;0.87;;;0.87;;
37097;SDS011;63608;49.572;12.348;2023-10-31T09:34:56;0.87;;;0.87;;
37097;SDS011;63608;49.572;12.348;2023-10-31T09:36:59;0.93;;;0.80;;
37097;SDS011;63608;49.572;12.348;2023-10-31T09:39:01;0.73;;;0.73;;
37097;SDS011;63608;49.572;12.348;2023-10-31T09:41:04;0.90;;;0.70;;
37097;SDS011;63608;49.572;12.348;2023-10-31T09:43:06;0.70;;;0.70;;
37097;SDS011;63608;49.572;12.348;2023-10-31T09:45:09;0.87;;;0.87;;
37097;SDS011;63608;49.572;12.348;2023-10-31T09:47:13;0.80;;;0.80;;
37097;SDS011;63608;49.572;12.348;2023-10-31T09:49:15;1.00;;;0.70;;
37097;SDS011;63608;49.572;12.348;2023-10-31T09:51:20;0.80;;;0.80;;
37097;SDS011;63608;49.572;12.348;2023-10-31T09:53:23;0.80;;;0.80;;
37097;SDS011;63608;49.572;12.348;2023-10-31T09:55:26;1.00;;;0.97;;
37097;SDS011;63608;49.572;12.348;2023-10-31T09:57:30;1.27;;;1.00;;
37097;SDS011;63608;49.572;12.348;2023-10-31T09:59:31;6.53;;;0.93;;
37097;SDS011;63608;49.572;12.348;2023-10-31T10:01:34;0.80;;;0.80;;
37097;SDS011;63608;49.572;12.348;2023-10-31T10:03:40;1.40;;;0.90;;
37097;SDS011;63608;49.572;12.348;2023-10-31T10:05:43;0.80;;;0.80;;
37097;SDS011;63608;49.572;12.348;2023-10-31T10:07:46;0.90;;;0.90;;
37097;SDS011;63608;49.572;12.348;2023-10-31T10:09:50;1.13;;;0.80;;
37097;SDS011;63608;49.572;12.348;2023-10-31T10:11:53;0.80;;;0.80;;
37097;SDS011;63608;49.572;12.348;2023-10-31T10:13:58;2.07;;;1.00;;
37097;SDS011;63608;49.572;12.348;2023-10-31T10:16:01;0.90;;;0.90;;
37097;SDS011;63608;49.572;12.348;2023-10-31T10:18:06;0.90;;;0.90;;
37097;SDS011;63608;49.572;12.348;2023-10-31T10:20:11;0.73;;;0.73;;
37097;SDS011;63608;49.572;12.348;2023-10-31T10:22:13;0.83;;;0.70;;
37097;SDS011;63608;49.572;12.348;2023-10-31T10:24:16;0.80;;;0.80;;
37097;SDS011;63608;49.572;12.348;2023-10-31T10:26:17;0.80;;;0.80;;
37097;SDS011;63608;49.572;12.348;2023-10-31T10:28:21;0.80;;;0.80;;
37097;SDS011;63608;49.572;12.348;2023-10-31T10:30:25;0.70;;;0.60;;
37097;SDS011;63608;49.572;12.348;2023-10-31T10:32:32;0.83;;;0.80;;
37097;SDS011;63608;49.572;12.348;2023-10-31T10:34:35;0.90;;;0.80;;
37097;SDS011;63608;49.572;12.348;2023-10-31T10:36:39;0.70;;;0.70;;
37097;SDS011;63608;49.572;12.348;2023-10-31T10:38:41;1.40;;;1.30;;
37097;SDS011;63608;49.572;12.348;2023-10-31T10:40:46;1.43;;;0.83;;
37097;SDS011;63608;49.572;12.348;2023-10-31T10:42:49;1.20;;;0.93;;
37097;SDS011;63608;49.572;12.348;2023-10-31T10:44:57;0.80;;;0.70;;
37097;SDS011;63608;49.572;12.348;2023-10-31T10:46:59;0.73;;;0.73;;
37097;SDS011;63608;49.572;12.348;2023-10-31T10:49:04;0.90;;;0.90;;
37097;SDS011;63608;49.572;12.348;2023-10-31T10:51:11;0.73;;;0.70;;
37097;SDS011;63608;49.572;12.348;2023-10-31T10:53:21;0.80;;;0.70;;
37097;SDS011;63608;49.572;12.348;2023-10-31T10:55:26;0.70;;;0.60;;
37097;SDS011;63608;49.572;12.348;2023-10-31T10:57:32;0.80;;;0.80;;
37097;SDS011;63608;49.572;12.348;2023-10-31T10:59:40;0.80;;;0.80;;
37097;SDS011;63608;49.572;12.348;2023-10-31T11:01:43;1.10;;;0.97;;
37097;SDS011;63608;49.572;12.348;2023-10-31T11:03:47;2.47;;;2.10;;
37097;SDS011;63608;49.572;12.348;2023-10-31T11:05:53;0.77;;;0.77;;
37097;SDS011;63608;49.572;12.348;2023-10-31T11:07:55;1.10;;;1.00;;
37097;SDS011;63608;49.572;12.348;2023-10-31T11:10:02;1.10;;;1.00;;
37097;SDS011;63608;49.572;12.348;2023-10-31T11:12:06;1.30;;;0.90;;
37097;SDS011;63608;49.572;12.348;2023-10-31T11:14:10;1.10;;;1.00;;
37097;SDS011;63608;49.572;12.348;2023-10-31T11:16:13;1.70;;;1.60;;
37097;SDS011;63608;49.572;12.348;2023-10-31T11:18:20;1.17;;;1.03;;
37097;SDS011;63608;49.572;12.348;2023-10-31T11:20:23;1.67;;;0.90;;
37097;SDS011;63608;49.572;12.348;2023-10-31T11:22:36;4.63;;;1.30;;
37097;SDS011;63608;49.572;12.348;2023-10-31T11:24:40;1.30;;;1.20;;
37097;SDS011;63608;49.572;12.348;2023-10-31T11:26:52;2.03;;;1.23;;
37097;SDS011;63608;49.572;12.348;2023-10-31T11:29:03;1.00;;;1.00;;
37097;SDS011;63608;49.572;12.348;2023-10-31T11:31:08;0.90;;;0.80;;
37097;SDS011;63608;49.572;12.348;2023-10-31T11:33:11;1.13;;;1.00;;
37097;SDS011;63608;49.572;12.348;2023-10-31T11:35:16;0.87;;;0.87;;
37097;SDS011;63608;49.572;12.348;2023-10-31T11:37:24;1.80;;;1.60;;
37097;SDS011;63608;49.572;12.348;2023-10-31T11:39:26;0.83;;;0.83;;
37097;SDS011;63608;49.572;12.348;2023-10-31T11:41:28;1.10;;;1.10;;
37097;SDS011;63608;49.572;12.348;2023-10-31T11:43:51;0.80;;;0.80;;
37097;SDS011;63608;49.572;12.348;2023-10-31T11:45:53;0.70;;;0.70;;
37097;SDS011;63608;49.572;12.348;2023-10-31T11:48:05;0.90;;;0.90;;
37097;SDS011;63608;49.572;12.348;2023-10-31T11:50:16;0.97;;;0.97;;
37097;SDS011;63608;49.572;12.348;2023-10-31T11:52:18;0.90;;;0.90;;
37097;SDS011;63608;49.572;12.348;2023-10-31T11:54:20;0.90;;;0.90;;
37097;SDS011;63608;49.572;12.348;2023-10-31T11:56:27;0.70;;;0.70;;
37097;SDS011;63608;49.572;12.348;2023-10-31T11:58:29;1.00;;;0.90;;
37097;SDS011;63608;49.572;12.348;2023-10-31T12:00:34;0.80;;;0.80;;
37097;SDS011;63608;49.572;12.348;2023-10-31T12:02:36;0.90;;;0.90;;
37097;SDS011;63608;49.572;12.348;2023-10-31T12:04:39;1.20;;;1.10;;
37097;SDS011;63608;49.572;12.348;2023-10-31T12:06:42;1.07;;;0.97;;
37097;SDS011;63608;49.572;12.348;2023-10-31T12:08:45;0.93;;;0.93;;
37097;SDS011;63608;49.572;12.348;2023-10-31T12:10:47;1.20;;;1.10;;
37097;SDS011;63608;49.572;12.348;2023-10-31T12:12:52;1.33;;;1.23;;
37097;SDS011;63608;49.572;12.348;2023-10-31T12:15:04;1.30;;;0.83;;